Terminal Aerodrome Forecast
Issued by NWS

Home | Current Version | Previous Version | Text Only | Print | Product List | Glossary On
Versions: 1 2 3 4 5 6 7 8 9 10 11 12 13 14 15 16 17 18 19 20 21 22 23 24 25 26
000
FTUS43 KAPX 042218 AAB
TAFTVC
TAF AMD
KTVC 042218Z 0422/0518 29012G18KT P6SM -SHSN SCT025 BKN035
      TEMPO 0422/0502 3SM -SHSN BKN029
     FM050200 33008KT P6SM BKN035
     FM050500 VRB03KT P6SM SCT035
     FM051600 28007KT P6SM BKN028=

USA.gov is the U.S. government's official web portal to all federal, state and local government web resources and services.